LYBELRTR

Guest
Details From LYBE - Belgrade
To LRTR - TRAIAN VUIA
Flight Number -
Tags generated
Created
Modified
Stats Distance 75 nm / 138 km
Max Altitude 300 ft / 91 m
Waypoints 3
Social Downloads 1
Likes 0
Share VATSIM

Download

Looking for another format? Having issues loading an existing format? Contact us
Advertisement - Login to hide

Notes

Basic altitude profile: - Ascent Rate: 2500ft/min - Ascent Speed: 250kts - Cruise Altitude: 35000ft - Cruise Speed: 420kts - Descent Rate: 1500ft/min - Descent Speed: 250kts Options: - Use NATs: yes - Use PACOTS: yes - Use low airways: yes - Use high airways: yes

Route

LYBE TSR LRTR

ID Type Via Altitude Latitude Longitude Leg Dist Tot Dist Heading (true) Name
O LYBE APT - 0 ft / 0 m 44.81843˚ 20.30921˚ - 0 nm - Belgrade
TSR NDB - 300 ft / 91 m 45.81799˚ 21.30541˚ 73 nm 73 nm 35° / 35° TIMISOARA NDB
O LRTR APT - 0 ft / 0 m 45.80983˚ 21.33787˚ 1 nm 74 nm 110° / 110° TRAIAN VUIA

Altitude Profile

Advertisement - Login to hide

LYBE

Details ICAO LYBE (BEG)
Name Belgrade
Region Serbia and Montenegro
Timezone Europe/Belgrade (UTC+1.0)
Stats Elevation 335 ft / 102 m (AMSL)
Location 44.818429° 20.309211°
Runways 1
Magnetic Variation 4.671° E

METAR

LYBE 120900Z 14008KT CAVOK 13/06 Q1011 NOSIG

Decode

TAF

TAF LYBE 120500Z 1206/1306 14012KT CAVOK TX14/1213Z TN08/1306Z BECMG 1304/1306 32009KT

Decode

Departure Runways

ID Width Length Bearing (true) Bearing (mag) Surface Threshold Offset Overrun Length
12 148 ft / 45 m 11,138 ft / 3,395 m 122.00° 117.33° Asphalt 1,000 ft / 305 m 0 ft / 0 m
30 148 ft / 45 m 11,138 ft / 3,395 m 302.03° 297.36° Asphalt 1,312 ft / 400 m 0 ft / 0 m

LRTR

Details ICAO LRTR (TSR)
Name TRAIAN VUIA
Region Romania
Timezone Europe/Bucharest (UTC+2.0)
Stats Elevation 348 ft / 106 m (AMSL)
Location 45.809834° 21.337872°
Runways 1
Magnetic Variation 4.972° E

METAR

LRTR 120900Z 17017KT CAVOK 14/05 Q1010 NOSIG

Decode

TAF

TAF LRTR 120500Z 1206/1306 18018KT CAVOK PROB30 TEMPO 1206/1209 18018G28KT BECMG 1222/1224 23008KT BECMG 1303/1305 32010KT 5000 -RA BKN010 OVC030

Decode

Destination Runways

ID Width Length Bearing (true) Bearing (mag) Surface Threshold Offset Overrun Length
11 148 ft / 45 m 11,419 ft / 3,481 m 109.81° 104.84° Concrete 0 ft / 0 m 0 ft / 0 m
29 148 ft / 45 m 11,419 ft / 3,481 m 289.84° 284.87° Concrete 0 ft / 0 m 0 ft / 0 m

Approach Navaids

Runway Type Ident Frequency Range Bearing (true) Bearing (mag) Slope Elevation
29 Localiser ITR 109.30 MHz 18 nm / 33 km 289.80° 284.83° - 343 ft / 105 m (AMSL)
29 Glidescope ITR 109.30 MHz 10 nm / 19 km 289.82° 284.85° 3.00° 343 ft / 105 m (AMSL)
29 DME ITR 109.30 MHz 18 nm / 33 km - - - 399 ft / 122 m (AMSL)